Terminal Aerodrome Forecast
Issued by NWS

Home | Current Version | Previous Version | Text Only | Print | Product List | Glossary Off
Versions: 1 2 3 4 5 6 7 8 9 10 11 12 13 14 15 16 17

000
FTUS43 KGRB 240500
TAFAUW
TAF
KAUW 240520Z 2406/2506 12006KT P6SM SCT030 OVC050
      TEMPO 2406/2408 -RA BKN030
     FM240800 12009KT 3SM -RAPL BKN020 OVC035 WS020/14030KT
     FM241400 11016G25KT 2SM -RA BR BKN012 OVC020 WS020/14040KT
     FM241900 12012G20KT 2SM -RA BR BKN007 OVC012 WS020/15045KT
     FM250100 16007KT 3SM -RA BR BKN007 OVC012 WS020/17045KT=

USA.gov is the U.S. government's official web portal to all federal, state and local government web resources and services.